Time;durP1;ratioP1;P1;durP2;ratioP2;P2;SDS_P1;SDS_P2;PMS_P1;PMS_P2;Temp;Humidity;BMP_temperature;BMP_pressure;BME280_temperature;BME280_humidity;BME280_pressure;Samples;Min_cycle;Max_cycle;Signal;HPM_P1;HPM_P2
2021/12/16 00:34:59;;;;;;;6.82;3.75;;;2.50;99.90;;;;;;20686017;28;20034;-77
2021/12/16 01:48:41;;;;;;;10.88;4.85;;;2.70;99.90;;;;;;20669229;28;20413;-77
2021/12/16 01:57:44;;;;;;;15.17;6.07;;;2.70;99.90;;;;;;20658283;28;20092;-77
2021/12/16 02:38:34;;;;;;;14.82;6.22;;;2.80;99.90;;;;;;20687703;28;20057;-78
2021/12/16 02:48:38;;;;;;;12.43;6.32;;;2.80;99.90;;;;;;20676790;28;20034;-78
2021/12/16 02:58:42;;;;;;;16.58;7.20;;;2.70;99.90;;;;;;20692477;28;20053;-78
2021/12/16 03:08:43;;;;;;;14.95;7.20;;;2.70;99.90;;;;;;20696154;28;20038;-78
2021/12/16 03:19:07;;;;;;;14.65;6.47;;;2.70;99.90;;;;;;20696627;28;20045;-78
2021/12/16 03:39:25;;;;;;;15.43;6.68;;;2.60;99.90;;;;;;20679773;28;20069;-78
2021/12/16 03:49:26;;;;;;;12.75;6.30;;;2.60;99.90;;;;;;20681857;28;20034;-77
2021/12/16 03:59:33;;;;;;;10.52;5.35;;;2.70;99.90;;;;;;20663818;28;20657;-77
2021/12/16 04:09:46;;;;;;;9.40;5.35;;;2.70;99.90;;;;;;20661604;28;20050;-77
2021/12/16 04:19:57;;;;;;;9.43;5.47;;;2.70;99.90;;;;;;20664695;28;20062;-77
2021/12/16 04:29:58;;;;;;;14.05;6.38;;;2.70;99.90;;;;;;20680267;28;20504;-77
2021/12/16 04:40:00;;;;;;;11.75;5.72;;;2.70;99.90;;;;;;20673320;28;20048;-76
2021/12/16 04:50:03;;;;;;;10.30;5.18;;;2.70;99.90;;;;;;20671417;28;20040;-76
2021/12/16 05:00:07;;;;;;;8.68;4.30;;;2.70;99.90;;;;;;20670691;28;20037;-76
2021/12/16 05:10:17;;;;;;;10.30;5.07;;;2.70;99.90;;;;;;20654670;28;20047;-76
2021/12/16 05:20:30;;;;;;;9.32;4.85;;;2.70;99.90;;;;;;20671987;28;20116;-75
2021/12/16 05:30:33;;;;;;;9.20;4.45;;;2.70;99.90;;;;;;20667497;28;20030;-76
2021/12/16 05:40:35;;;;;;;7.40;3.88;;;2.70;99.90;;;;;;20670719;28;20053;-75
2021/12/16 05:50:50;;;;;;;7.55;3.45;;;2.60;99.90;;;;;;20666539;28;20026;-76
2021/12/16 06:00:59;;;;;;;7.32;4.00;;;2.60;99.90;;;;;;20665947;28;20034;-75
2021/12/16 06:31:27;;;;;;;10.55;4.13;;;2.70;99.90;;;;;;20584521;28;20098;-77
2021/12/16 06:41:34;;;;;;;6.65;3.47;;;2.70;99.90;;;;;;20624053;28;20069;-77
2021/12/16 06:52:05;;;;;;;12.60;4.18;;;2.80;99.90;;;;;;20662032;28;20064;-77
2021/12/16 07:12:10;;;;;;;6.53;3.72;;;2.80;99.90;;;;;;20657088;28;20038;-77
2021/12/16 07:22:13;;;;;;;8.65;4.22;;;2.80;99.90;;;;;;20662543;28;20062;-77
2021/12/16 07:32:14;;;;;;;8.48;4.05;;;2.70;99.90;;;;;;20663003;28;20470;-76
2021/12/16 07:42:24;;;;;;;7.85;4.07;;;2.70;99.90;;;;;;20663285;28;20050;-76
2021/12/16 07:52:24;;;;;;;7.72;4.40;;;2.70;99.90;;;;;;20661283;28;20041;-77
2021/12/16 08:02:25;;;;;;;9.45;4.05;;;2.70;99.90;;;;;;20673248;28;20477;-77
2021/12/16 08:12:26;;;;;;;8.32;4.35;;;2.80;99.90;;;;;;20675383;28;20493;-76
2021/12/16 08:22:27;;;;;;;9.18;4.35;;;2.90;99.90;;;;;;20673612;28;20064;-77
2021/12/16 08:32:28;;;;;;;6.85;3.92;;;3.00;99.90;;;;;;20674467;28;20030;-76
2021/12/16 08:42:29;;;;;;;;;;;3.20;99.90;;;;;;20674263;28;20494;-78
2021/12/16 08:52:30;;;;;;;10.95;5.15;;;3.20;99.90;;;;;;20672571;28;19996;-76
2021/12/16 09:02:31;;;;;;;;;;;3.30;99.90;;;;;;20672377;28;20089;-76
2021/12/16 09:22:37;;;;;;;10.60;6.00;;;3.40;99.90;;;;;;20670255;28;20034;-77
2021/12/16 09:32:38;;;;;;;8.73;5.70;;;3.50;99.90;;;;;;20670424;28;20030;-75
2021/12/16 09:42:39;;;;;;;7.28;3.70;;;3.60;99.90;;;;;;20669990;28;20030;-74
2021/12/16 09:52:40;;;;;;;;;;;3.80;99.90;;;;;;20668360;28;20064;-78
2021/12/16 10:02:41;;;;;;;6.50;3.27;;;3.80;99.90;;;;;;20689977;28;19917;-79
2021/12/16 10:12:45;;;;;;;6.65;3.08;;;4.00;99.90;;;;;;20688717;28;20304;-76
2021/12/16 10:22:46;;;;;;;8.57;3.75;;;4.00;99.90;;;;;;20664514;28;20501;-77
2021/12/16 10:32:49;;;;;;;4.03;2.25;;;3.90;99.90;;;;;;20684456;28;20509;-79
2021/12/16 10:42:51;;;;;;;3.72;2.13;;;4.10;99.90;;;;;;20689119;28;20034;-76
2021/12/16 10:52:52;;;;;;;4.05;2.28;;;4.40;99.90;;;;;;20668341;28;20037;-79
2021/12/16 11:02:53;;;;;;;4.35;2.58;;;4.70;99.90;;;;;;20672481;28;20070;-77
2021/12/16 11:12:54;;;;;;;;;;;4.60;99.90;;;;;;20662833;28;20103;-76
2021/12/16 11:23:16;;;;;;;4.47;1.80;;;4.50;99.90;;;;;;20662021;28;20277;-77
2021/12/16 11:33:22;;;;;;;4.57;2.25;;;4.60;99.90;;;;;;20672603;28;20534;-76
2021/12/16 11:43:39;;;;;;;4.28;2.50;;;4.60;99.90;;;;;;20677736;28;20034;-76
2021/12/16 11:53:53;;;;;;;5.00;2.00;;;4.60;99.90;;;;;;20678196;28;20049;-76
2021/12/16 12:04:02;;;;;;;9.00;3.75;;;4.70;99.90;;;;;;20675876;28;20031;-77
2021/12/16 12:14:08;;;;;;;5.88;2.25;;;4.80;99.90;;;;;;20675248;28;20034;-77
2021/12/16 12:24:09;;;;;;;5.22;2.30;;;5.00;99.90;;;;;;20673464;28;20046;-77
2021/12/16 12:34:11;;;;;;;4.95;2.05;;;5.10;99.90;;;;;;20672731;28;20062;-77
2021/12/16 12:44:12;;;;;;;5.25;1.90;;;5.00;99.90;;;;;;20672507;28;20109;-77
2021/12/16 12:54:21;;;;;;;2.95;1.75;;;5.00;99.90;;;;;;20672444;28;20026;-77
2021/12/16 13:04:33;;;;;;;3.47;2.25;;;5.00;99.90;;;;;;20671781;28;20030;-79
2021/12/16 13:14:52;;;;;;;4.78;2.50;;;4.90;99.90;;;;;;20671339;28;20026;-77
2021/12/16 13:45:21;;;;;;;4.93;2.27;;;5.00;99.90;;;;;;20668459;28;20043;-77
2021/12/16 14:06:11;;;;;;;6.70;3.38;;;5.00;99.90;;;;;;20667141;28;20158;-76
2021/12/16 14:27:20;;;;;;;5.75;3.05;;;4.90;99.90;;;;;;20979942;28;20393;-77
2021/12/16 14:37:34;;;;;;;6.38;3.35;;;4.80;99.90;;;;;;20979172;28;20029;-76
2021/12/16 14:57:55;;;;;;;20.25;8.88;;;4.80;99.90;;;;;;20977547;28;20039;-77
2021/12/16 15:08:09;;;;;;;6.88;4.18;;;4.70;99.90;;;;;;20977698;28;20416;-76
2021/12/16 15:39:01;;;;;;;15.15;7.25;;;4.50;99.90;;;;;;20918837;28;20400;-78
2021/12/16 15:49:03;;;;;;;10.75;5.35;;;4.50;99.90;;;;;;20918629;28;20039;-78
2021/12/16 15:59:12;;;;;;;16.17;7.03;;;4.40;99.90;;;;;;20917713;28;20045;-78
2021/12/16 16:09:15;;;;;;;13.20;5.22;;;4.50;99.90;;;;;;20915088;28;20093;-78
2021/12/16 16:19:31;;;;;;;11.82;5.72;;;4.40;99.90;;;;;;20916509;28;20052;-76
2021/12/16 16:29:34;;;;;;;12.63;6.28;;;4.40;99.90;;;;;;20914930;28;20033;-77
2021/12/16 16:39:40;;;;;;;15.07;8.35;;;4.40;99.90;;;;;;20914208;28;20111;-77
2021/12/16 16:49:48;;;;;;;13.80;7.18;;;4.40;99.90;;;;;;20888815;28;20033;-77
2021/12/16 16:59:58;;;;;;;13.65;6.13;;;4.40;99.90;;;;;;20872952;28;20527;-77
2021/12/16 17:09:59;;;;;;;9.98;5.38;;;4.30;99.90;;;;;;20879702;28;20045;-79
2021/12/16 17:20:08;;;;;;;12.15;5.93;;;4.20;99.90;;;;;;20877565;28;20555;-77
2021/12/16 17:30:20;;;;;;;10.75;5.45;;;4.10;99.90;;;;;;20873910;28;20056;-77
2021/12/16 17:40:29;;;;;;;15.18;7.20;;;4.10;99.90;;;;;;20878789;28;20029;-77
2021/12/16 17:50:37;;;;;;;17.88;9.23;;;4.20;99.90;;;;;;20881517;28;20044;-78
2021/12/16 18:00:48;;;;;;;15.32;7.68;;;4.10;99.90;;;;;;20878581;28;20060;-78
2021/12/16 18:10:49;;;;;;;15.85;8.45;;;4.00;99.90;;;;;;20881302;28;20484;-78
2021/12/16 18:20:59;;;;;;;14.25;6.78;;;4.10;99.90;;;;;;20878514;28;20622;-79
2021/12/16 18:31:18;;;;;;;15.70;8.13;;;4.00;99.90;;;;;;20889035;28;20463;-78
2021/12/16 18:41:25;;;;;;;16.80;9.50;;;4.00;99.90;;;;;;20878851;28;20029;-77
2021/12/16 19:01:58;;;;;;;22.83;10.68;;;3.80;99.90;;;;;;20865153;28;20095;-76
2021/12/16 19:12:05;;;;;;;33.40;13.45;;;3.70;99.90;;;;;;20882755;28;20095;-76
2021/12/16 19:22:11;;;;;;;31.60;11.73;;;3.60;99.90;;;;;;20887509;28;20037;-76
2021/12/16 19:32:15;;;;;;;17.67;9.07;;;3.30;99.90;;;;;;20883963;28;20408;-76
2021/12/16 19:42:17;;;;;;;17.42;9.20;;;3.30;99.90;;;;;;20882353;28;20098;-76
2021/12/16 19:52:18;;;;;;;16.45;8.63;;;3.10;99.90;;;;;;20880803;28;20070;-75
2021/12/16 20:02:19;;;;;;;16.95;8.55;;;3.10;99.90;;;;;;20880177;28;20080;-76
2021/12/16 20:12:31;;;;;;;20.13;9.55;;;2.90;99.90;;;;;;20880006;28;20029;-76
2021/12/16 20:22:33;;;;;;;20.30;10.13;;;3.00;99.90;;;;;;20878599;28;20029;-76
2021/12/16 20:32:39;;;;;;;16.90;8.30;;;2.90;99.90;;;;;;20878626;28;20044;-76
2021/12/16 20:42:44;;;;;;;17.05;7.68;;;3.00;99.90;;;;;;20871424;28;20120;-76
2021/12/16 20:52:45;;;;;;;19.70;9.13;;;2.90;99.90;;;;;;20877631;28;20036;-75
2021/12/16 21:02:47;;;;;;;24.13;10.73;;;2.90;99.90;;;;;;20876485;28;20514;-75
2021/12/16 21:12:49;;;;;;;19.17;8.85;;;2.90;99.90;;;;;;20873590;28;20025;-76
2021/12/16 21:22:52;;;;;;;21.65;10.15;;;2.90;99.90;;;;;;20876186;28;20596;-75
2021/12/16 21:32:55;;;;;;;22.00;10.25;;;2.90;99.90;;;;;;20872845;28;20033;-76
2021/12/16 21:42:57;;;;;;;23.48;10.38;;;3.00;99.90;;;;;;20872955;28;20032;-77
2021/12/16 21:52:58;;;;;;;23.33;10.15;;;3.20;99.90;;;;;;20872590;28;20458;-76
2021/12/16 22:03:01;;;;;;;21.80;10.80;;;3.30;99.90;;;;;;20872257;28;20025;-75
2021/12/16 22:13:03;;;;;;;24.33;12.05;;;3.40;99.90;;;;;;20870847;28;20082;-76
2021/12/16 22:23:07;;;;;;;22.73;11.35;;;3.60;99.90;;;;;;20871544;28;20131;-78
2021/12/16 22:33:10;;;;;;;30.45;12.50;;;3.60;99.90;;;;;;20889804;28;20033;-76
2021/12/16 22:43:11;;;;;;;22.55;10.88;;;3.60;99.90;;;;;;20898709;28;20047;-79
2021/12/16 22:53:12;;;;;;;22.48;11.38;;;3.60;99.90;;;;;;20904143;28;20578;-77
2021/12/16 23:03:14;;;;;;;;;;;3.60;99.90;;;;;;20902530;28;20110;-78
2021/12/16 23:13:16;;;;;;;23.17;11.10;;;3.60;99.90;;;;;;20906529;28;19917;-77
2021/12/16 23:23:16;;;;;;;21.42;10.18;;;3.60;99.90;;;;;;20895134;28;20040;-77
2021/12/16 23:33:17;;;;;;;;;;;3.60;99.90;;;;;;20884322;28;20044;-78
2021/12/16 23:53:38;;;;;;;18.83;9.27;;;3.60;99.90;;;;;;20889955;28;20044;-77
